createdAt,value
2022-11-17T00:01:55.432Z,98029.56
2022-11-17T00:04:30.097Z,98024.02
2022-11-17T00:07:02.127Z,98024.03
2022-11-17T00:09:34.011Z,98021.09
2022-11-17T00:12:29.791Z,98021.77
2022-11-17T00:15:04.420Z,98023.86
2022-11-17T00:17:36.233Z,98017.63
2022-11-17T00:20:30.058Z,98016.06
2022-11-17T00:23:01.898Z,98020.73
2022-11-17T00:25:34.220Z,98020.73
2022-11-17T00:28:06.558Z,98023.86
2022-11-17T00:30:55.063Z,98025.76
2022-11-17T00:33:44.441Z,98026.98
2022-11-17T00:36:17.753Z,98030.09
2022-11-17T00:38:49.571Z,98024.38
2022-11-17T00:41:21.341Z,98026.11
2022-11-17T00:43:53.186Z,98024.38
2022-11-17T00:46:25.233Z,98025.42
2022-11-17T00:48:57.174Z,98023.86
2022-11-17T00:51:28.986Z,98027.32
2022-11-17T00:54:00.907Z,98027.66
2022-11-17T00:56:32.794Z,98029.22
2022-11-17T00:59:04.950Z,98030.60
2022-11-17T01:01:37.385Z,98024.38
2022-11-17T01:04:09.721Z,98020.56
2022-11-17T01:06:43.912Z,98017.62
2022-11-17T01:09:17.894Z,98017.80
2022-11-17T01:11:51.458Z,98021.09
2022-11-17T01:14:25.692Z,98024.03
2022-11-17T01:16:57.751Z,98026.11
2022-11-17T01:19:29.774Z,98022.13
2022-11-17T01:22:01.882Z,98018.67
2022-11-17T01:24:33.730Z,98016.07
2022-11-17T01:27:05.565Z,98020.75
2022-11-17T01:29:37.533Z,98019.54
2022-11-17T01:32:09.430Z,98016.23
2022-11-17T01:34:41.705Z,98018.31
2022-11-17T01:37:22.428Z,98017.45
2022-11-17T01:39:54.453Z,98017.10
2022-11-17T01:42:28.185Z,98012.77
2022-11-17T01:45:05.693Z,98009.31
2022-11-17T01:47:43.832Z,98008.61
2022-11-17T01:50:35.431Z,98009.63
2022-11-17T01:53:09.857Z,98013.94
2022-11-17T01:55:47.270Z,98015.48
2022-11-17T01:58:22.680Z,98013.58
2022-11-17T02:00:55.443Z,98017.22
2022-11-17T02:03:28.149Z,98020.15
2022-11-17T02:06:07.313Z,98019.08
2022-11-17T02:08:42.250Z,98018.55
2022-11-17T02:11:17.287Z,98016.82
2022-11-17T02:13:50.245Z,98018.02
2022-11-17T02:16:22.050Z,98020.11
2022-11-17T02:18:54.117Z,98024.61
2022-11-17T02:21:59.161Z,98019.77
2022-11-17T02:24:58.006Z,98023.91
2022-11-17T02:27:54.615Z,98025.64
2022-11-17T02:30:31.309Z,98024.77
2022-11-17T02:33:08.771Z,98024.42
2022-11-17T02:35:47.815Z,98024.77
2022-11-17T02:38:30.830Z,98023.04
2022-11-17T02:41:10.349Z,98015.24
2022-11-17T02:44:03.695Z,98013.17
2022-11-17T02:46:42.060Z,98010.05
2022-11-17T02:49:14.844Z,98007.63
2022-11-17T02:51:49.344Z,98002.27
2022-11-17T02:54:22.763Z,97999.15
2022-11-17T02:56:54.693Z,97999.48
2022-11-17T02:59:32.022Z,97998.80
2022-11-17T03:02:21.148Z,98001.92
2022-11-17T03:05:04.568Z,98006.08
2022-11-17T03:07:58.517Z,98007.80
2022-11-17T03:10:42.445Z,98013.01
2022-11-17T03:13:19.657Z,98016.45
2022-11-17T03:15:56.036Z,98012.99
2022-11-17T03:18:36.663Z,98011.08
2022-11-17T03:21:17.441Z,98012.26
2022-11-17T03:23:52.344Z,98018.13
2022-11-17T03:26:28.415Z,98016.55
2022-11-17T03:29:01.175Z,98017.59
2022-11-17T03:31:36.317Z,98017.07
2022-11-17T03:34:12.037Z,98022.05
2022-11-17T03:36:49.212Z,98022.20
2022-11-17T03:39:29.023Z,98021.84
2022-11-17T03:42:04.364Z,98016.80
2022-11-17T03:44:39.820Z,98019.21
2022-11-17T03:47:13.731Z,98015.41
2022-11-17T03:49:50.660Z,98013.86
2022-11-17T03:52:22.719Z,98011.96
2022-11-17T03:54:54.864Z,98008.85
2022-11-17T03:57:34.312Z,97998.09
2022-11-17T04:00:08.288Z,97997.20
2022-11-17T04:02:47.610Z,97999.96
2022-11-17T04:05:20.592Z,98005.65
2022-11-17T04:07:52.352Z,98012.86
2022-11-17T04:10:26.759Z,98013.39
2022-11-17T04:13:15.840Z,98014.41
2022-11-17T04:15:59.626Z,98022.53
2022-11-17T04:18:31.502Z,98025.13
2022-11-17T04:21:03.353Z,98028.23
2022-11-17T04:23:35.411Z,98028.57
2022-11-17T04:26:24.896Z,98035.30
2022-11-17T04:28:56.641Z,98035.81
2022-11-17T04:31:30.319Z,98034.95
2022-11-17T04:34:04.166Z,98034.09
2022-11-17T04:36:40.790Z,98043.95
2022-11-17T04:39:14.377Z,98057.79
2022-11-17T04:41:56.967Z,98064.53
2022-11-17T04:44:30.163Z,98068.52
2022-11-17T04:47:03.671Z,98068.16
2022-11-17T04:49:35.675Z,98062.98
2022-11-17T04:52:07.852Z,98052.95
2022-11-17T04:54:39.575Z,98036.16
2022-11-17T04:57:11.279Z,98020.73
2022-11-17T04:59:43.046Z,98023.47
2022-11-17T05:02:14.896Z,98029.33
2022-11-17T05:04:58.620Z,98037.79
2022-11-17T05:07:30.613Z,98047.98
2022-11-17T05:10:02.351Z,98049.00
2022-11-17T05:12:51.887Z,98045.50
2022-11-17T05:15:44.117Z,98043.23
2022-11-17T05:18:15.878Z,98053.49
2022-11-17T05:20:47.617Z,98058.13
2022-11-17T05:23:37.734Z,98051.36
2022-11-17T05:26:09.704Z,98036.27
2022-11-17T05:28:41.514Z,98014.67
2022-11-17T05:31:13.744Z,98007.92
2022-11-17T05:33:47.939Z,98021.72
2022-11-17T05:36:20.195Z,98041.77
2022-11-17T05:38:52.517Z,98052.98
2022-11-17T05:41:25.125Z,98054.02
2022-11-17T05:43:57.745Z,98059.20
2022-11-17T05:46:29.656Z,98068.35
2022-11-17T05:49:01.543Z,98077.85
2022-11-17T05:51:33.459Z,98077.52
2022-11-17T05:54:05.665Z,98081.83
2022-11-17T05:56:43.444Z,98076.81
2022-11-17T05:59:27.768Z,98066.61
2022-11-17T06:02:04.794Z,98056.20
2022-11-17T06:04:37.148Z,98054.64
2022-11-17T06:07:09.634Z,98057.05
2022-11-17T06:09:43.378Z,98060.15
2022-11-17T06:12:15.561Z,98062.56
2022-11-17T06:14:47.556Z,98070.15
2022-11-17T06:17:24.157Z,98074.98
2022-11-17T06:20:02.566Z,98075.51
2022-11-17T06:22:33.682Z,98077.08
2022-11-17T06:25:09.465Z,98073.80
2022-11-17T06:27:42.472Z,98073.14
2022-11-17T06:30:15.523Z,98079.23
2022-11-17T06:32:49.622Z,98081.16
2022-11-17T06:35:21.562Z,98079.95
2022-11-17T06:37:53.383Z,98082.20
2022-11-17T06:40:25.230Z,98083.09
2022-11-17T06:43:08.695Z,98088.80
2022-11-17T06:45:42.385Z,98091.40
2022-11-17T06:48:16.510Z,98091.80
2022-11-17T06:50:50.977Z,98094.41
2022-11-17T06:53:26.516Z,98094.60
2022-11-17T06:56:08.393Z,98094.09
2022-11-17T06:58:41.469Z,98090.64
2022-11-17T07:01:15.681Z,98094.97
2022-11-17T07:03:47.531Z,98093.42
2022-11-17T07:06:20.071Z,98099.30
2022-11-17T07:08:52.092Z,98097.95
2022-11-17T07:11:24.187Z,98099.52
2022-11-17T07:13:56.097Z,98095.85
2022-11-17T07:16:29.300Z,98089.59
2022-11-17T07:19:03.576Z,98085.08
2022-11-17T07:21:35.644Z,98085.08
2022-11-17T07:24:08.749Z,98089.40
2022-11-17T07:26:40.842Z,98090.77
2022-11-17T07:29:12.738Z,98096.66
2022-11-17T07:31:44.510Z,98097.02
2022-11-17T07:34:16.433Z,98099.14
2022-11-17T07:36:49.149Z,98102.98
2022-11-17T07:39:21.949Z,98100.94
2022-11-17T07:41:54.059Z,98099.23
2022-11-17T07:44:25.949Z,98100.48
2022-11-17T07:46:58.435Z,98103.06
2022-11-17T07:49:30.965Z,98102.73
2022-11-17T07:52:03.180Z,98102.89
2022-11-17T07:54:35.031Z,98100.80
2022-11-17T07:57:06.952Z,98106.02
2022-11-17T07:59:38.662Z,98108.45
2022-11-17T08:02:11.685Z,98107.79
2022-11-17T08:04:43.497Z,98106.08
2022-11-17T08:07:15.489Z,98106.61
2022-11-17T08:09:47.477Z,98107.89
2022-11-17T08:12:19.385Z,98110.16
2022-11-17T08:14:51.792Z,98112.23
2022-11-17T08:17:24.305Z,98112.06
2022-11-17T08:19:56.178Z,98118.31
2022-11-17T08:22:28.070Z,98120.40
2022-11-17T08:24:59.898Z,98118.71
2022-11-17T08:27:31.677Z,98119.42
2022-11-17T08:30:03.725Z,98128.41
2022-11-17T08:32:35.825Z,98131.35
2022-11-17T08:35:09.126Z,98137.06
2022-11-17T08:37:44.557Z,98141.23
2022-11-17T08:40:18.149Z,98139.70
2022-11-17T08:42:59.143Z,98135.42
2022-11-17T08:45:32.683Z,98136.14
2022-11-17T08:48:07.481Z,98139.98
2022-11-17T08:50:39.448Z,98139.65
2022-11-17T08:53:16.034Z,98145.23
2022-11-17T08:55:48.244Z,98142.96
2022-11-17T08:58:20.087Z,98139.52
2022-11-17T09:00:52.143Z,98140.04
2022-11-17T09:03:24.732Z,98131.34
2022-11-17T09:05:56.800Z,98122.31
2022-11-17T09:08:44.869Z,98121.42
2022-11-17T09:11:18.334Z,98125.34
2022-11-17T09:13:50.297Z,98127.41
2022-11-17T09:16:24.171Z,98126.72
2022-11-17T09:18:58.514Z,98125.69
2022-11-17T09:21:31.718Z,98127.10
2022-11-17T09:24:03.769Z,98128.87
2022-11-17T09:26:35.926Z,98131.28
2022-11-17T09:29:07.890Z,98130.61
2022-11-17T09:31:39.770Z,98130.62
2022-11-17T09:34:11.927Z,98131.16
2022-11-17T09:36:44.018Z,98135.84
2022-11-17T09:39:15.873Z,98137.96
2022-11-17T09:41:49.555Z,98139.69
2022-11-17T09:44:34.397Z,98140.90
2022-11-17T09:47:18.061Z,98140.91
2022-11-17T09:49:59.268Z,98143.52
2022-11-17T09:52:36.180Z,98143.71
2022-11-17T09:55:23.052Z,98135.15
2022-11-17T09:58:01.693Z,98131.52
2022-11-17T10:00:35.726Z,98128.45
2022-11-17T10:03:17.891Z,98125.19
2022-11-17T10:05:50.739Z,98121.04
2022-11-17T10:08:29.434Z,98117.39
2022-11-17T10:11:21.256Z,98114.46
2022-11-17T10:13:53.989Z,98114.98
2022-11-17T10:16:26.311Z,98120.02
2022-11-17T10:18:58.400Z,98118.96
2022-11-17T10:21:32.808Z,98122.77
2022-11-17T10:24:05.055Z,98118.09
2022-11-17T10:26:47.841Z,98120.34
2022-11-17T10:29:25.333Z,98115.17
2022-11-17T10:31:58.108Z,98112.73
2022-11-17T10:34:40.771Z,98117.75
2022-11-17T10:37:35.997Z,98119.64
2022-11-17T10:40:24.762Z,98127.04
2022-11-17T10:43:22.097Z,98131.33
2022-11-17T10:45:56.535Z,98134.44
2022-11-17T10:48:31.159Z,98137.89
2022-11-17T10:51:09.271Z,98135.67
2022-11-17T10:53:46.766Z,98129.44
2022-11-17T10:56:22.110Z,98134.65
2022-11-17T10:59:03.386Z,98127.92
2022-11-17T11:01:37.873Z,98122.95
2022-11-17T11:04:28.827Z,98124.68
2022-11-17T11:07:14.759Z,98123.98
2022-11-17T11:09:50.920Z,98122.09
2022-11-17T11:12:33.215Z,98121.67
2022-11-17T11:15:28.340Z,98124.02
2022-11-17T11:18:00.294Z,98128.30
2022-11-17T11:20:40.695Z,98131.59
2022-11-17T11:23:22.244Z,98136.42
2022-11-17T11:26:02.779Z,98137.10
2022-11-17T11:28:54.530Z,98137.24
2022-11-17T11:31:33.742Z,98137.25
2022-11-17T11:34:20.596Z,98134.34
2022-11-17T11:36:58.247Z,98132.27
2022-11-17T11:39:42.439Z,98129.67
2022-11-17T11:42:42.528Z,98130.05
2022-11-17T11:45:22.305Z,98128.66
2022-11-17T11:48:14.928Z,98131.98
2022-11-17T11:50:56.100Z,98138.08
2022-11-17T11:53:33.450Z,98142.05
2022-11-17T11:56:19.849Z,98144.94
2022-11-17T11:58:55.201Z,98145.02
2022-11-17T12:01:30.085Z,98143.75
2022-11-17T12:04:15.995Z,98143.88
2022-11-17T12:06:57.067Z,98143.15
2022-11-17T12:09:57.092Z,98141.92
2022-11-17T12:12:32.838Z,98134.68
2022-11-17T12:15:26.602Z,98135.60
2022-11-17T12:18:12.726Z,98137.89
2022-11-17T12:20:55.271Z,98130.98
2022-11-17T12:23:49.387Z,98132.20
2022-11-17T12:26:26.933Z,98136.34
2022-11-17T12:29:32.590Z,98137.40
2022-11-17T12:32:05.448Z,98140.38
2022-11-17T12:34:37.967Z,98138.27
2022-11-17T12:37:21.993Z,98136.86
2022-11-17T12:40:31.178Z,98139.07
2022-11-17T12:43:26.348Z,98142.63
2022-11-17T12:46:12.564Z,98141.04
2022-11-17T12:48:52.479Z,98146.00
2022-11-17T12:51:31.957Z,98148.74
2022-11-17T12:54:20.795Z,98151.30
2022-11-17T12:56:57.924Z,98146.59
2022-11-17T13:00:10.805Z,98147.23
2022-11-17T13:03:00.184Z,98154.84
2022-11-17T13:05:32.840Z,98153.42
2022-11-17T13:08:27.447Z,98152.91
2022-11-17T13:11:12.111Z,98147.59
2022-11-17T13:13:46.928Z,98151.21
2022-11-17T13:16:22.879Z,98153.96
2022-11-17T13:18:54.653Z,98152.00
2022-11-17T13:21:33.870Z,98152.80
2022-11-17T13:24:06.153Z,98156.25
2022-11-17T13:26:38.684Z,98153.27
2022-11-17T13:29:13.592Z,98154.05
2022-11-17T13:31:46.176Z,98152.30
2022-11-17T13:34:21.263Z,98156.94
2022-11-17T13:36:57.306Z,98160.57
2022-11-17T13:39:29.900Z,98161.27
2022-11-17T13:42:04.326Z,98152.80
2022-11-17T13:44:36.498Z,98153.83
2022-11-17T13:47:22.678Z,98153.83
2022-11-17T13:49:55.270Z,98158.33
2022-11-17T13:52:40.408Z,98163.16
2022-11-17T13:55:21.298Z,98159.70
2022-11-17T13:57:59.855Z,98161.23
2022-11-17T14:00:32.556Z,98155.99
2022-11-17T14:03:07.080Z,98159.95
2022-11-17T14:05:38.835Z,98163.91
2022-11-17T14:08:30.691Z,98171.16
2022-11-17T14:11:22.321Z,98177.70
2022-11-17T14:13:58.878Z,98182.52
2022-11-17T14:16:35.839Z,98190.77
2022-11-17T14:19:25.066Z,98188.19
2022-11-17T14:22:04.551Z,98186.80
2022-11-17T14:24:37.730Z,98192.30
2022-11-17T14:27:34.726Z,98199.20
2022-11-17T14:30:09.674Z,98203.29
2022-11-17T14:32:41.427Z,98201.16
2022-11-17T14:37:53.523Z,98183.98
2022-11-17T14:40:25.319Z,98180.55
2022-11-17T14:42:57.731Z,98177.15
2022-11-17T14:45:29.905Z,98174.06
2022-11-17T14:48:02.293Z,98176.45
2022-11-17T14:50:34.939Z,98174.14
2022-11-17T14:53:07.183Z,98170.66
2022-11-17T14:55:38.976Z,98172.51
2022-11-17T14:58:10.952Z,98177.14
2022-11-17T15:00:42.693Z,98180.75
2022-11-17T15:03:14.533Z,98184.56
2022-11-17T15:05:49.298Z,98187.51
2022-11-17T15:08:21.180Z,98190.11
2022-11-17T15:10:55.402Z,98193.86
2022-11-17T15:13:27.245Z,98189.98
2022-11-17T15:16:05.939Z,98183.01
2022-11-17T15:18:37.961Z,98173.25
2022-11-17T15:21:11.566Z,98168.20
2022-11-17T15:23:44.141Z,98174.75
2022-11-17T15:26:18.783Z,98175.27
2022-11-17T15:28:51.564Z,98180.80
2022-11-17T15:31:23.721Z,98179.95
2022-11-17T15:33:55.490Z,98174.27
2022-11-17T15:36:27.258Z,98169.81
2022-11-17T15:38:59.170Z,98169.49
2022-11-17T15:41:32.981Z,98176.79
2022-11-17T15:44:05.048Z,98173.58
2022-11-17T15:46:37.222Z,98168.77
2022-11-17T15:49:08.974Z,98156.69
2022-11-17T15:51:40.813Z,98152.55
2022-11-17T15:54:19.876Z,98152.77
2022-11-17T15:56:52.187Z,98150.07
2022-11-17T15:59:23.957Z,98149.59
2022-11-17T16:01:55.698Z,98151.13
2022-11-17T16:04:27.812Z,98151.96
2022-11-17T16:06:59.850Z,98151.05
2022-11-17T16:09:31.666Z,98144.46
2022-11-17T16:12:03.829Z,98143.02
2022-11-17T16:14:35.632Z,98146.80
2022-11-17T16:17:07.389Z,98149.90
2022-11-17T16:19:40.390Z,98150.25
2022-11-17T16:22:12.182Z,98148.71
2022-11-17T16:24:43.967Z,98151.64
2022-11-17T16:27:15.807Z,98151.80
2022-11-17T16:29:47.591Z,98146.95
2022-11-17T16:32:19.324Z,98143.45
2022-11-17T16:34:51.036Z,98141.70
2022-11-17T16:37:22.738Z,98142.20
2022-11-17T16:39:55.212Z,98152.89
2022-11-17T16:42:27.001Z,98152.67
2022-11-17T16:44:58.772Z,98151.05
2022-11-17T16:47:30.696Z,98145.82
2022-11-17T16:50:03.624Z,98144.75
2022-11-17T16:52:36.353Z,98150.45
2022-11-17T16:55:09.801Z,98151.46
2022-11-17T16:57:42.339Z,98147.80
2022-11-17T17:00:17.893Z,98146.71
2022-11-17T17:02:52.514Z,98141.52
2022-11-17T17:05:24.485Z,98143.22
2022-11-17T17:07:56.653Z,98141.84
2022-11-17T17:10:29.005Z,98135.42
2022-11-17T17:13:00.775Z,98138.98
2022-11-17T17:15:33.852Z,98137.02
2022-11-17T17:18:05.908Z,98140.25
2022-11-17T17:20:39.097Z,98140.90
2022-11-17T17:23:11.330Z,98142.61
2022-11-17T17:25:43.112Z,98147.27
2022-11-17T17:28:14.842Z,98141.73
2022-11-17T17:30:53.873Z,98145.02
2022-11-17T17:33:26.521Z,98139.16
2022-11-17T17:36:04.081Z,98140.92
2022-11-17T17:38:36.352Z,98144.55
2022-11-17T17:41:09.709Z,98145.02
2022-11-17T17:43:42.593Z,98140.45
2022-11-17T17:46:16.658Z,98141.06
2022-11-17T17:48:48.391Z,98139.40
2022-11-17T17:51:21.809Z,98140.70
2022-11-17T17:53:54.416Z,98147.39
2022-11-17T17:56:27.038Z,98149.94
2022-11-17T17:58:59.658Z,98151.66
2022-11-17T18:01:33.247Z,98151.02
2022-11-17T18:04:05.603Z,98153.10
2022-11-17T18:06:39.784Z,98150.88
2022-11-17T18:09:14.616Z,98155.39
2022-11-17T18:11:49.842Z,98155.41
2022-11-17T18:14:24.670Z,98155.58
2022-11-17T18:16:56.904Z,98156.96
2022-11-17T18:22:14.267Z,98166.54
2022-11-17T18:24:46.103Z,98169.32
2022-11-17T18:27:17.862Z,98169.17
2022-11-17T18:29:50.834Z,98166.59
2022-11-17T18:32:22.635Z,98170.73
2022-11-17T18:34:54.399Z,98175.02
2022-11-17T18:37:26.159Z,98171.58
2022-11-17T18:39:57.914Z,98167.78
2022-11-17T18:42:30.651Z,98171.52
2022-11-17T18:45:02.570Z,98171.80
2022-11-17T18:47:34.321Z,98170.30
2022-11-17T18:50:06.979Z,98162.10
2022-11-17T18:52:38.774Z,98162.58
2022-11-17T18:55:11.919Z,98156.55
2022-11-17T18:57:46.234Z,98159.49
2022-11-17T19:00:19.909Z,98163.30
2022-11-17T19:02:51.922Z,98157.63
2022-11-17T19:05:23.779Z,98153.70
2022-11-17T19:07:57.493Z,98159.62
2022-11-17T19:10:29.773Z,98160.86
2022-11-17T19:13:01.904Z,98160.60
2022-11-17T19:15:35.217Z,98157.29
2022-11-17T19:18:07.076Z,98152.82
2022-11-17T19:20:40.292Z,98155.58
2022-11-17T19:23:12.282Z,98156.59
2022-11-17T19:25:45.568Z,98153.92
2022-11-17T19:28:18.087Z,98152.64
2022-11-17T19:30:50.661Z,98148.18
2022-11-17T19:33:22.471Z,98149.73
2022-11-17T19:35:54.257Z,98144.98
2022-11-17T19:38:26.014Z,98140.23
2022-11-17T19:41:01.860Z,98138.91
2022-11-17T19:43:40.307Z,98136.88
2022-11-17T19:46:17.721Z,98136.88
2022-11-17T19:48:50.770Z,98137.38
2022-11-17T19:51:24.337Z,98134.42
2022-11-17T19:53:57.907Z,98134.20
2022-11-17T19:56:30.615Z,98132.92
2022-11-17T19:59:03.072Z,98131.34
2022-11-17T20:01:35.533Z,98130.71
2022-11-17T20:04:07.738Z,98134.56
2022-11-17T20:06:41.281Z,98134.81
2022-11-17T20:09:14.663Z,98132.49
2022-11-17T20:11:46.976Z,98130.81
2022-11-17T20:14:18.809Z,98126.69
2022-11-17T20:16:51.683Z,98124.61
2022-11-17T20:19:23.560Z,98127.48
2022-11-17T20:21:55.323Z,98119.30
2022-11-17T20:24:27.050Z,98111.85
2022-11-17T20:26:58.775Z,98106.90
2022-11-17T20:29:31.443Z,98106.39
2022-11-17T20:32:03.219Z,98105.34
2022-11-17T20:34:34.975Z,98105.54
2022-11-17T20:37:06.974Z,98102.44
2022-11-17T20:39:38.775Z,98101.08
2022-11-17T20:42:11.385Z,98096.13
2022-11-17T20:44:43.699Z,98099.97
2022-11-17T20:47:15.455Z,98096.01
2022-11-17T20:49:47.212Z,98096.98
2022-11-17T20:52:19.008Z,98093.65
2022-11-17T20:54:51.040Z,98095.00
2022-11-17T20:57:23.137Z,98089.48
2022-11-17T20:59:54.911Z,98085.73
2022-11-17T21:02:26.683Z,98087.16
2022-11-17T21:04:58.433Z,98083.56
2022-11-17T21:07:30.367Z,98084.33
2022-11-17T21:10:02.322Z,98081.28
2022-11-17T21:12:34.829Z,98077.00
2022-11-17T21:15:07.834Z,98072.35
2022-11-17T21:17:57.192Z,98066.66
2022-11-17T21:20:29.177Z,98059.70
2022-11-17T21:23:00.927Z,98058.92
2022-11-17T21:25:32.677Z,98055.43
2022-11-17T21:28:04.545Z,98054.22
2022-11-17T21:30:36.353Z,98052.14
2022-11-17T21:33:08.102Z,98050.62
2022-11-17T21:35:39.847Z,98044.60
2022-11-17T21:38:14.022Z,98044.83
2022-11-17T21:40:45.826Z,98043.46
2022-11-17T21:43:17.982Z,98044.32
2022-11-17T21:45:49.719Z,98048.77
2022-11-17T21:48:21.615Z,98052.68
2022-11-17T21:50:53.481Z,98053.19
2022-11-17T21:53:25.714Z,98055.64
2022-11-17T21:56:02.479Z,98057.07
2022-11-17T21:58:35.174Z,98055.23
2022-11-17T22:01:11.391Z,98053.93
2022-11-17T22:03:43.911Z,98052.79
2022-11-17T22:06:18.184Z,98055.59
2022-11-17T22:08:50.781Z,98051.48
2022-11-17T22:11:36.571Z,98052.67
2022-11-17T22:14:11.946Z,98057.34
2022-11-17T22:16:45.245Z,98056.27
2022-11-17T22:19:18.636Z,98059.00
2022-11-17T22:21:52.763Z,98060.70
2022-11-17T22:24:25.170Z,98067.20
2022-11-17T22:26:56.940Z,98069.98
2022-11-17T22:29:29.681Z,98071.23
2022-11-17T22:32:01.425Z,98074.02
2022-11-17T22:34:33.437Z,98069.90
2022-11-17T22:37:05.176Z,98072.52
2022-11-17T22:39:38.372Z,98072.92
2022-11-17T22:42:10.206Z,98075.55
2022-11-17T22:44:41.947Z,98069.16
2022-11-17T22:47:13.919Z,98069.48
2022-11-17T22:49:45.693Z,98068.11
2022-11-17T22:52:17.659Z,98064.67
2022-11-17T22:54:49.490Z,98064.70
2022-11-17T22:57:21.279Z,98060.56
2022-11-17T22:59:53.201Z,98062.64
2022-11-17T23:02:25.004Z,98060.92
2022-11-17T23:04:57.111Z,98057.48
2022-11-17T23:07:29.001Z,98055.23
2022-11-17T23:10:00.808Z,98059.04
2022-11-17T23:12:32.598Z,98050.58
2022-11-17T23:15:04.642Z,98048.14
2022-11-17T23:17:36.431Z,98045.85
2022-11-17T23:20:10.634Z,98041.45
2022-11-17T23:22:42.521Z,98034.34
2022-11-17T23:25:14.286Z,98030.19
2022-11-17T23:27:46.054Z,98026.94
2022-11-17T23:30:18.698Z,98023.13
2022-11-17T23:32:53.618Z,98018.98
2022-11-17T23:35:25.717Z,98013.81
2022-11-17T23:37:57.460Z,98005.85
2022-11-17T23:40:29.282Z,97999.23
2022-11-17T23:43:01.195Z,97996.77
2022-11-17T23:45:32.927Z,98000.02
2022-11-17T23:48:04.814Z,97995.45
2022-11-17T23:50:37.758Z,97994.89
2022-11-17T23:53:09.738Z,97989.54
2022-11-17T23:55:41.757Z,97982.66
2022-11-17T23:58:13.526Z,97980.13
